sensor_id;sensor_type;location;lat;lon;timestamp;temperature;humidity
18083;DHT22;9168;51.194;6.840;2022-10-19T00:01:46;9.60;99.90
18083;DHT22;9168;51.194;6.840;2022-10-19T00:04:13;9.60;99.90
18083;DHT22;9168;51.194;6.840;2022-10-19T00:06:43;9.60;99.90
18083;DHT22;9168;51.194;6.840;2022-10-19T00:09:13;9.60;99.90
18083;DHT22;9168;51.194;6.840;2022-10-19T00:11:41;9.60;99.90
18083;DHT22;9168;51.194;6.840;2022-10-19T00:14:11;9.50;99.90
18083;DHT22;9168;51.194;6.840;2022-10-19T00:16:39;9.50;99.90
18083;DHT22;9168;51.194;6.840;2022-10-19T00:19:08;9.50;99.90
18083;DHT22;9168;51.194;6.840;2022-10-19T00:21:36;9.50;99.90
18083;DHT22;9168;51.194;6.840;2022-10-19T00:24:06;9.50;99.90
18083;DHT22;9168;51.194;6.840;2022-10-19T00:26:33;9.50;99.90
18083;DHT22;9168;51.194;6.840;2022-10-19T00:29:00;9.50;99.90
18083;DHT22;9168;51.194;6.840;2022-10-19T00:31:27;9.50;99.90
18083;DHT22;9168;51.194;6.840;2022-10-19T00:33:55;9.50;99.90
18083;DHT22;9168;51.194;6.840;2022-10-19T00:36:24;9.50;99.90
18083;DHT22;9168;51.194;6.840;2022-10-19T00:38:52;9.50;99.90
18083;DHT22;9168;51.194;6.840;2022-10-19T00:41:22;9.50;99.90
18083;DHT22;9168;51.194;6.840;2022-10-19T00:43:52;9.50;99.90
18083;DHT22;9168;51.194;6.840;2022-10-19T00:46:19;9.50;99.90
18083;DHT22;9168;51.194;6.840;2022-10-19T00:48:47;9.50;99.90
18083;DHT22;9168;51.194;6.840;2022-10-19T00:51:14;9.40;99.90
18083;DHT22;9168;51.194;6.840;2022-10-19T00:53:41;9.40;99.90
18083;DHT22;9168;51.194;6.840;2022-10-19T00:56:11;9.40;99.90
18083;DHT22;9168;51.194;6.840;2022-10-19T00:58:41;9.40;99.90
18083;DHT22;9168;51.194;6.840;2022-10-19T01:01:12;9.40;99.90
18083;DHT22;9168;51.194;6.840;2022-10-19T01:03:40;9.40;99.90
18083;DHT22;9168;51.194;6.840;2022-10-19T01:06:07;9.40;99.90
18083;DHT22;9168;51.194;6.840;2022-10-19T01:08:34;9.40;99.90
18083;DHT22;9168;51.194;6.840;2022-10-19T01:11:16;9.40;99.90
18083;DHT22;9168;51.194;6.840;2022-10-19T01:13:57;9.30;99.90
18083;DHT22;9168;51.194;6.840;2022-10-19T01:16:34;9.30;99.90
18083;DHT22;9168;51.194;6.840;2022-10-19T01:19:17;9.30;99.90
18083;DHT22;9168;51.194;6.840;2022-10-19T01:21:59;9.30;99.90
18083;DHT22;9168;51.194;6.840;2022-10-19T01:24:47;9.30;99.90
18083;DHT22;9168;51.194;6.840;2022-10-19T01:27:49;9.20;99.90
18083;DHT22;9168;51.194;6.840;2022-10-19T01:30:29;9.20;99.90
18083;DHT22;9168;51.194;6.840;2022-10-19T01:33:10;9.20;99.90
18083;DHT22;9168;51.194;6.840;2022-10-19T01:35:45;9.20;99.90
18083;DHT22;9168;51.194;6.840;2022-10-19T01:38:22;9.10;99.90
18083;DHT22;9168;51.194;6.840;2022-10-19T01:40:54;9.10;99.90
18083;DHT22;9168;51.194;6.840;2022-10-19T01:43:32;9.10;99.90
18083;DHT22;9168;51.194;6.840;2022-10-19T01:46:07;9.10;99.90
18083;DHT22;9168;51.194;6.840;2022-10-19T01:48:39;9.10;99.90
18083;DHT22;9168;51.194;6.840;2022-10-19T01:51:10;9.10;99.90
18083;DHT22;9168;51.194;6.840;2022-10-19T01:53:40;9.00;99.90
18083;DHT22;9168;51.194;6.840;2022-10-19T01:56:08;9.00;99.90
18083;DHT22;9168;51.194;6.840;2022-10-19T01:58:38;9.00;99.90
18083;DHT22;9168;51.194;6.840;2022-10-19T02:01:08;8.90;99.90
18083;DHT22;9168;51.194;6.840;2022-10-19T02:03:36;8.90;99.90
18083;DHT22;9168;51.194;6.840;2022-10-19T02:06:05;8.90;99.90
18083;DHT22;9168;51.194;6.840;2022-10-19T02:08:37;8.90;99.90
18083;DHT22;9168;51.194;6.840;2022-10-19T02:11:06;8.90;99.90
18083;DHT22;9168;51.194;6.840;2022-10-19T02:13:34;8.80;99.90
18083;DHT22;9168;51.194;6.840;2022-10-19T02:16:07;8.80;99.90
18083;DHT22;9168;51.194;6.840;2022-10-19T02:18:38;8.80;99.90
18083;DHT22;9168;51.194;6.840;2022-10-19T02:21:06;8.70;99.90
18083;DHT22;9168;51.194;6.840;2022-10-19T02:23:34;8.70;99.90
18083;DHT22;9168;51.194;6.840;2022-10-19T02:26:01;8.70;99.90
18083;DHT22;9168;51.194;6.840;2022-10-19T02:28:29;8.70;99.90
18083;DHT22;9168;51.194;6.840;2022-10-19T02:30:57;8.70;99.90
18083;DHT22;9168;51.194;6.840;2022-10-19T02:33:26;8.70;99.90
18083;DHT22;9168;51.194;6.840;2022-10-19T02:35:54;8.60;99.90
18083;DHT22;9168;51.194;6.840;2022-10-19T02:38:23;8.60;99.90
18083;DHT22;9168;51.194;6.840;2022-10-19T02:40:55;8.60;99.90
18083;DHT22;9168;51.194;6.840;2022-10-19T02:43:25;8.60;99.90
18083;DHT22;9168;51.194;6.840;2022-10-19T02:45:57;8.60;99.90
18083;DHT22;9168;51.194;6.840;2022-10-19T02:48:29;8.50;99.90
18083;DHT22;9168;51.194;6.840;2022-10-19T02:50:57;8.50;99.90
18083;DHT22;9168;51.194;6.840;2022-10-19T02:53:24;8.50;99.90
18083;DHT22;9168;51.194;6.840;2022-10-19T02:55:51;8.50;99.90
18083;DHT22;9168;51.194;6.840;2022-10-19T02:58:18;8.40;99.90
18083;DHT22;9168;51.194;6.840;2022-10-19T03:00:45;8.50;99.90
18083;DHT22;9168;51.194;6.840;2022-10-19T03:03:11;8.40;99.90
18083;DHT22;9168;51.194;6.840;2022-10-19T03:05:40;8.40;99.90
18083;DHT22;9168;51.194;6.840;2022-10-19T03:08:07;8.40;99.90
18083;DHT22;9168;51.194;6.840;2022-10-19T03:10:33;8.40;99.90
18083;DHT22;9168;51.194;6.840;2022-10-19T03:13:00;8.40;99.90
18083;DHT22;9168;51.194;6.840;2022-10-19T03:15:27;8.40;99.90
18083;DHT22;9168;51.194;6.840;2022-10-19T03:17:55;8.40;99.90
18083;DHT22;9168;51.194;6.840;2022-10-19T03:20:22;8.40;99.90
18083;DHT22;9168;51.194;6.840;2022-10-19T03:22:50;8.30;99.90
18083;DHT22;9168;51.194;6.840;2022-10-19T03:25:17;8.30;99.90
18083;DHT22;9168;51.194;6.840;2022-10-19T03:27:44;8.30;99.90
18083;DHT22;9168;51.194;6.840;2022-10-19T03:30:11;8.20;99.90
18083;DHT22;9168;51.194;6.840;2022-10-19T03:32:38;8.20;99.90
18083;DHT22;9168;51.194;6.840;2022-10-19T03:35:06;8.20;99.90
18083;DHT22;9168;51.194;6.840;2022-10-19T03:37:33;8.20;99.90
18083;DHT22;9168;51.194;6.840;2022-10-19T03:40:01;8.20;99.90
18083;DHT22;9168;51.194;6.840;2022-10-19T03:42:28;8.20;99.90
18083;DHT22;9168;51.194;6.840;2022-10-19T03:44:55;8.20;99.90
18083;DHT22;9168;51.194;6.840;2022-10-19T03:47:22;8.20;99.90
18083;DHT22;9168;51.194;6.840;2022-10-19T03:49:49;8.10;99.90
18083;DHT22;9168;51.194;6.840;2022-10-19T03:52:16;8.10;99.90
18083;DHT22;9168;51.194;6.840;2022-10-19T03:54:43;8.10;99.90
18083;DHT22;9168;51.194;6.840;2022-10-19T03:57:12;8.10;99.90
18083;DHT22;9168;51.194;6.840;2022-10-19T03:59:39;8.10;99.90
18083;DHT22;9168;51.194;6.840;2022-10-19T04:02:06;8.10;99.90
18083;DHT22;9168;51.194;6.840;2022-10-19T04:04:33;8.00;99.90
18083;DHT22;9168;51.194;6.840;2022-10-19T04:07:00;8.00;99.90
18083;DHT22;9168;51.194;6.840;2022-10-19T04:09:27;8.00;99.90
18083;DHT22;9168;51.194;6.840;2022-10-19T04:11:54;8.00;99.90
18083;DHT22;9168;51.194;6.840;2022-10-19T04:14:22;8.00;99.90
18083;DHT22;9168;51.194;6.840;2022-10-19T04:16:50;7.90;99.90
18083;DHT22;9168;51.194;6.840;2022-10-19T04:19:17;7.90;99.90
18083;DHT22;9168;51.194;6.840;2022-10-19T04:21:47;8.00;99.90
18083;DHT22;9168;51.194;6.840;2022-10-19T04:24:16;8.00;99.90
18083;DHT22;9168;51.194;6.840;2022-10-19T04:26:45;8.00;99.90
18083;DHT22;9168;51.194;6.840;2022-10-19T04:29:12;8.00;99.90
18083;DHT22;9168;51.194;6.840;2022-10-19T04:31:41;8.00;99.90
18083;DHT22;9168;51.194;6.840;2022-10-19T04:34:08;7.90;99.90
18083;DHT22;9168;51.194;6.840;2022-10-19T04:36:35;7.90;99.90
18083;DHT22;9168;51.194;6.840;2022-10-19T04:39:02;7.90;99.90
18083;DHT22;9168;51.194;6.840;2022-10-19T04:41:30;7.90;99.90
18083;DHT22;9168;51.194;6.840;2022-10-19T04:43:59;7.90;99.90
18083;DHT22;9168;51.194;6.840;2022-10-19T04:46:27;7.90;99.90
18083;DHT22;9168;51.194;6.840;2022-10-19T04:48:56;7.90;99.90
18083;DHT22;9168;51.194;6.840;2022-10-19T04:51:24;7.90;99.90
18083;DHT22;9168;51.194;6.840;2022-10-19T04:53:52;7.90;99.90
18083;DHT22;9168;51.194;6.840;2022-10-19T04:56:22;7.80;99.90
18083;DHT22;9168;51.194;6.840;2022-10-19T04:58:53;7.80;99.90
18083;DHT22;9168;51.194;6.840;2022-10-19T05:01:21;7.90;99.90
18083;DHT22;9168;51.194;6.840;2022-10-19T05:03:51;7.90;99.90
18083;DHT22;9168;51.194;6.840;2022-10-19T05:06:19;7.90;99.90
18083;DHT22;9168;51.194;6.840;2022-10-19T05:08:47;7.80;99.90
18083;DHT22;9168;51.194;6.840;2022-10-19T05:11:15;7.90;99.90
18083;DHT22;9168;51.194;6.840;2022-10-19T05:13:43;7.90;99.90
18083;DHT22;9168;51.194;6.840;2022-10-19T05:16:13;7.90;99.90
18083;DHT22;9168;51.194;6.840;2022-10-19T05:18:40;7.90;99.90
18083;DHT22;9168;51.194;6.840;2022-10-19T05:21:09;7.90;99.90
18083;DHT22;9168;51.194;6.840;2022-10-19T05:23:38;7.90;99.90
18083;DHT22;9168;51.194;6.840;2022-10-19T05:26:07;7.90;99.90
18083;DHT22;9168;51.194;6.840;2022-10-19T05:28:34;7.90;99.90
18083;DHT22;9168;51.194;6.840;2022-10-19T05:31:06;8.00;99.90
18083;DHT22;9168;51.194;6.840;2022-10-19T05:33:34;8.00;99.90
18083;DHT22;9168;51.194;6.840;2022-10-19T05:36:17;8.10;99.90
18083;DHT22;9168;51.194;6.840;2022-10-19T05:38:48;8.10;99.90
18083;DHT22;9168;51.194;6.840;2022-10-19T05:41:17;8.10;99.90
18083;DHT22;9168;51.194;6.840;2022-10-19T05:43:45;8.10;99.90
18083;DHT22;9168;51.194;6.840;2022-10-19T05:46:14;8.10;99.90
18083;DHT22;9168;51.194;6.840;2022-10-19T05:48:42;8.10;99.90
18083;DHT22;9168;51.194;6.840;2022-10-19T05:51:11;8.10;99.90
18083;DHT22;9168;51.194;6.840;2022-10-19T05:53:38;8.10;99.90
18083;DHT22;9168;51.194;6.840;2022-10-19T05:56:10;8.10;99.90
18083;DHT22;9168;51.194;6.840;2022-10-19T05:58:38;8.10;99.90
18083;DHT22;9168;51.194;6.840;2022-10-19T06:01:05;8.10;99.90
18083;DHT22;9168;51.194;6.840;2022-10-19T06:03:32;8.10;99.90
18083;DHT22;9168;51.194;6.840;2022-10-19T06:06:01;8.10;99.90
18083;DHT22;9168;51.194;6.840;2022-10-19T06:08:28;8.10;99.90
18083;DHT22;9168;51.194;6.840;2022-10-19T06:11:03;8.00;99.90
18083;DHT22;9168;51.194;6.840;2022-10-19T06:13:32;8.10;99.90
18083;DHT22;9168;51.194;6.840;2022-10-19T06:15:59;8.10;99.90
18083;DHT22;9168;51.194;6.840;2022-10-19T06:18:26;8.10;99.90
18083;DHT22;9168;51.194;6.840;2022-10-19T06:20:53;8.10;99.90
18083;DHT22;9168;51.194;6.840;2022-10-19T06:23:19;8.10;99.90
18083;DHT22;9168;51.194;6.840;2022-10-19T06:25:46;8.10;99.90
18083;DHT22;9168;51.194;6.840;2022-10-19T06:28:13;8.20;99.90
18083;DHT22;9168;51.194;6.840;2022-10-19T06:30:41;8.20;99.90
18083;DHT22;9168;51.194;6.840;2022-10-19T06:33:08;8.10;99.90
18083;DHT22;9168;51.194;6.840;2022-10-19T06:35:35;8.20;99.90
18083;DHT22;9168;51.194;6.840;2022-10-19T06:38:03;8.20;99.90
18083;DHT22;9168;51.194;6.840;2022-10-19T06:40:29;8.20;99.90
18083;DHT22;9168;51.194;6.840;2022-10-19T06:42:56;8.20;99.90
18083;DHT22;9168;51.194;6.840;2022-10-19T06:45:23;8.20;99.90
18083;DHT22;9168;51.194;6.840;2022-10-19T06:47:51;8.20;99.90
18083;DHT22;9168;51.194;6.840;2022-10-19T06:50:18;8.20;99.90
18083;DHT22;9168;51.194;6.840;2022-10-19T06:52:46;8.20;99.90
18083;DHT22;9168;51.194;6.840;2022-10-19T06:55:13;8.30;99.90
18083;DHT22;9168;51.194;6.840;2022-10-19T06:57:41;8.30;99.90
18083;DHT22;9168;51.194;6.840;2022-10-19T07:00:09;8.30;99.90
18083;DHT22;9168;51.194;6.840;2022-10-19T07:02:36;8.30;99.90
18083;DHT22;9168;51.194;6.840;2022-10-19T07:05:06;8.40;99.90
18083;DHT22;9168;51.194;6.840;2022-10-19T07:07:33;8.40;99.90
18083;DHT22;9168;51.194;6.840;2022-10-19T07:10:00;8.50;99.90
18083;DHT22;9168;51.194;6.840;2022-10-19T07:12:27;8.50;99.90
18083;DHT22;9168;51.194;6.840;2022-10-19T07:14:53;8.50;99.90
18083;DHT22;9168;51.194;6.840;2022-10-19T07:17:21;8.50;99.90
18083;DHT22;9168;51.194;6.840;2022-10-19T07:19:47;8.50;99.90
18083;DHT22;9168;51.194;6.840;2022-10-19T07:22:16;8.60;99.90
18083;DHT22;9168;51.194;6.840;2022-10-19T07:24:43;8.70;99.90
18083;DHT22;9168;51.194;6.840;2022-10-19T07:27:10;8.80;99.90
18083;DHT22;9168;51.194;6.840;2022-10-19T07:29:36;8.90;99.90
18083;DHT22;9168;51.194;6.840;2022-10-19T07:32:04;9.00;99.90
18083;DHT22;9168;51.194;6.840;2022-10-19T07:34:30;9.10;99.90
18083;DHT22;9168;51.194;6.840;2022-10-19T07:36:57;9.20;99.90
18083;DHT22;9168;51.194;6.840;2022-10-19T07:39:26;9.30;99.90
18083;DHT22;9168;51.194;6.840;2022-10-19T07:41:53;9.50;99.90
18083;DHT22;9168;51.194;6.840;2022-10-19T07:44:20;9.60;99.90
18083;DHT22;9168;51.194;6.840;2022-10-19T07:46:46;9.70;99.90
18083;DHT22;9168;51.194;6.840;2022-10-19T07:49:14;9.80;99.90
18083;DHT22;9168;51.194;6.840;2022-10-19T07:51:43;9.80;99.90
18083;DHT22;9168;51.194;6.840;2022-10-19T07:54:10;9.90;99.90
18083;DHT22;9168;51.194;6.840;2022-10-19T07:56:39;9.90;99.90
18083;DHT22;9168;51.194;6.840;2022-10-19T07:59:06;9.90;99.90
18083;DHT22;9168;51.194;6.840;2022-10-19T08:01:34;10.00;99.90
18083;DHT22;9168;51.194;6.840;2022-10-19T08:04:05;9.90;99.90
18083;DHT22;9168;51.194;6.840;2022-10-19T08:06:32;9.90;99.90
18083;DHT22;9168;51.194;6.840;2022-10-19T08:08:59;9.90;99.90
18083;DHT22;9168;51.194;6.840;2022-10-19T08:11:28;10.00;99.90
18083;DHT22;9168;51.194;6.840;2022-10-19T08:13:57;10.00;99.90
18083;DHT22;9168;51.194;6.840;2022-10-19T08:16:26;10.10;99.90
18083;DHT22;9168;51.194;6.840;2022-10-19T08:18:56;10.20;99.90
18083;DHT22;9168;51.194;6.840;2022-10-19T08:21:24;10.20;99.90
18083;DHT22;9168;51.194;6.840;2022-10-19T08:23:50;10.30;99.90
18083;DHT22;9168;51.194;6.840;2022-10-19T08:26:17;10.40;99.90
18083;DHT22;9168;51.194;6.840;2022-10-19T08:28:44;10.40;99.90
18083;DHT22;9168;51.194;6.840;2022-10-19T08:31:14;10.40;99.90
18083;DHT22;9168;51.194;6.840;2022-10-19T08:33:42;10.50;99.90
18083;DHT22;9168;51.194;6.840;2022-10-19T08:36:11;10.50;99.90
18083;DHT22;9168;51.194;6.840;2022-10-19T08:38:39;10.50;99.90
18083;DHT22;9168;51.194;6.840;2022-10-19T08:41:18;10.60;99.90
18083;DHT22;9168;51.194;6.840;2022-10-19T08:46:41;10.70;99.90
18083;DHT22;9168;51.194;6.840;2022-10-19T08:49:18;10.70;99.90
18083;DHT22;9168;51.194;6.840;2022-10-19T08:51:49;10.80;99.90
18083;DHT22;9168;51.194;6.840;2022-10-19T08:54:17;10.80;99.90
18083;DHT22;9168;51.194;6.840;2022-10-19T08:56:47;10.90;99.90
18083;DHT22;9168;51.194;6.840;2022-10-19T08:59:25;10.90;99.90
18083;DHT22;9168;51.194;6.840;2022-10-19T09:01:59;10.90;99.90
18083;DHT22;9168;51.194;6.840;2022-10-19T09:04:31;11.00;99.90
18083;DHT22;9168;51.194;6.840;2022-10-19T09:07:21;11.10;99.90
18083;DHT22;9168;51.194;6.840;2022-10-19T09:09:52;11.10;99.90
18083;DHT22;9168;51.194;6.840;2022-10-19T09:12:30;11.20;99.90
18083;DHT22;9168;51.194;6.840;2022-10-19T09:15:01;11.30;99.90
18083;DHT22;9168;51.194;6.840;2022-10-19T09:17:32;11.30;99.90
18083;DHT22;9168;51.194;6.840;2022-10-19T09:20:13;11.40;99.90
18083;DHT22;9168;51.194;6.840;2022-10-19T09:22:41;11.50;99.90
18083;DHT22;9168;51.194;6.840;2022-10-19T09:25:13;11.50;99.90
18083;DHT22;9168;51.194;6.840;2022-10-19T09:27:46;11.60;99.90
18083;DHT22;9168;51.194;6.840;2022-10-19T09:30:17;11.60;99.90
18083;DHT22;9168;51.194;6.840;2022-10-19T09:32:46;11.70;99.90
18083;DHT22;9168;51.194;6.840;2022-10-19T09:35:20;11.80;99.90
18083;DHT22;9168;51.194;6.840;2022-10-19T09:37:50;11.80;99.90
18083;DHT22;9168;51.194;6.840;2022-10-19T09:40:19;11.90;99.90
18083;DHT22;9168;51.194;6.840;2022-10-19T09:42:46;12.00;99.90
18083;DHT22;9168;51.194;6.840;2022-10-19T09:45:27;12.10;99.90
18083;DHT22;9168;51.194;6.840;2022-10-19T09:47:55;12.10;99.90
18083;DHT22;9168;51.194;6.840;2022-10-19T09:50:24;12.20;99.90
18083;DHT22;9168;51.194;6.840;2022-10-19T09:52:52;12.20;99.90
18083;DHT22;9168;51.194;6.840;2022-10-19T09:55:32;12.40;99.90
18083;DHT22;9168;51.194;6.840;2022-10-19T09:58:04;12.40;99.90
18083;DHT22;9168;51.194;6.840;2022-10-19T10:00:34;12.50;99.90
18083;DHT22;9168;51.194;6.840;2022-10-19T10:03:05;12.60;99.90
18083;DHT22;9168;51.194;6.840;2022-10-19T10:05:33;12.80;99.90
18083;DHT22;9168;51.194;6.840;2022-10-19T10:08:02;12.90;99.90
18083;DHT22;9168;51.194;6.840;2022-10-19T10:10:34;13.00;99.90
18083;DHT22;9168;51.194;6.840;2022-10-19T10:13:02;13.10;99.90
18083;DHT22;9168;51.194;6.840;2022-10-19T10:15:35;13.20;99.90
18083;DHT22;9168;51.194;6.840;2022-10-19T10:18:12;13.30;99.90
18083;DHT22;9168;51.194;6.840;2022-10-19T10:20:56;13.50;99.90
18083;DHT22;9168;51.194;6.840;2022-10-19T10:23:25;13.60;99.90
18083;DHT22;9168;51.194;6.840;2022-10-19T10:25:54;13.70;99.90
18083;DHT22;9168;51.194;6.840;2022-10-19T10:28:22;13.80;99.90
18083;DHT22;9168;51.194;6.840;2022-10-19T10:30:53;13.90;99.90
18083;DHT22;9168;51.194;6.840;2022-10-19T10:33:25;14.00;99.90
18083;DHT22;9168;51.194;6.840;2022-10-19T10:36:01;14.20;99.90
18083;DHT22;9168;51.194;6.840;2022-10-19T10:38:31;14.40;99.90
18083;DHT22;9168;51.194;6.840;2022-10-19T10:41:00;14.60;99.90
18083;DHT22;9168;51.194;6.840;2022-10-19T10:43:30;14.90;99.90
18083;DHT22;9168;51.194;6.840;2022-10-19T10:46:02;15.30;99.90
18083;DHT22;9168;51.194;6.840;2022-10-19T10:48:34;15.70;99.90
18083;DHT22;9168;51.194;6.840;2022-10-19T10:51:07;16.10;99.90
18083;DHT22;9168;51.194;6.840;2022-10-19T10:53:37;16.40;99.90
18083;DHT22;9168;51.194;6.840;2022-10-19T10:56:16;16.70;99.90
18083;DHT22;9168;51.194;6.840;2022-10-19T10:58:49;17.10;99.90
18083;DHT22;9168;51.194;6.840;2022-10-19T11:01:19;17.80;99.90
18083;DHT22;9168;51.194;6.840;2022-10-19T11:03:53;18.40;99.90
18083;DHT22;9168;51.194;6.840;2022-10-19T11:06:23;19.30;99.90
18083;DHT22;9168;51.194;6.840;2022-10-19T11:08:57;19.90;99.90
18083;DHT22;9168;51.194;6.840;2022-10-19T11:11:29;20.60;99.90
18083;DHT22;9168;51.194;6.840;2022-10-19T11:13:59;20.90;99.90
18083;DHT22;9168;51.194;6.840;2022-10-19T11:16:32;21.40;99.90
18083;DHT22;9168;51.194;6.840;2022-10-19T11:19:12;22.00;99.90
18083;DHT22;9168;51.194;6.840;2022-10-19T11:21:45;22.60;99.90
18083;DHT22;9168;51.194;6.840;2022-10-19T11:24:23;23.00;99.90
18083;DHT22;9168;51.194;6.840;2022-10-19T11:27:01;23.50;99.90
18083;DHT22;9168;51.194;6.840;2022-10-19T11:30:06;23.90;99.90
18083;DHT22;9168;51.194;6.840;2022-10-19T11:32:41;24.30;99.90
18083;DHT22;9168;51.194;6.840;2022-10-19T11:38:09;25.40;99.70
18083;DHT22;9168;51.194;6.840;2022-10-19T11:40:46;25.60;99.90
18083;DHT22;9168;51.194;6.840;2022-10-19T11:43:25;25.70;99.50
18083;DHT22;9168;51.194;6.840;2022-10-19T11:46:02;25.70;97.40
18083;DHT22;9168;51.194;6.840;2022-10-19T11:48:50;25.60;97.30
18083;DHT22;9168;51.194;6.840;2022-10-19T11:51:30;25.50;98.20
18083;DHT22;9168;51.194;6.840;2022-10-19T11:54:14;25.70;96.10
18083;DHT22;9168;51.194;6.840;2022-10-19T11:56:47;25.50;94.20
18083;DHT22;9168;51.194;6.840;2022-10-19T11:59:22;25.60;93.80
18083;DHT22;9168;51.194;6.840;2022-10-19T12:01:58;25.80;93.20
18083;DHT22;9168;51.194;6.840;2022-10-19T12:04:39;25.90;92.50
18083;DHT22;9168;51.194;6.840;2022-10-19T12:07:30;26.00;91.50
18083;DHT22;9168;51.194;6.840;2022-10-19T12:10:09;25.70;91.10
18083;DHT22;9168;51.194;6.840;2022-10-19T12:12:42;25.20;93.30
18083;DHT22;9168;51.194;6.840;2022-10-19T12:15:19;24.70;92.80
18083;DHT22;9168;51.194;6.840;2022-10-19T12:17:50;24.40;93.70
18083;DHT22;9168;51.194;6.840;2022-10-19T12:20:22;24.10;96.00
18083;DHT22;9168;51.194;6.840;2022-10-19T12:22:52;23.80;96.60
18083;DHT22;9168;51.194;6.840;2022-10-19T12:25:20;23.50;98.50
18083;DHT22;9168;51.194;6.840;2022-10-19T12:27:48;23.20;93.60
18083;DHT22;9168;51.194;6.840;2022-10-19T12:30:18;23.00;94.70
18083;DHT22;9168;51.194;6.840;2022-10-19T12:32:54;22.90;95.50
18083;DHT22;9168;51.194;6.840;2022-10-19T12:35:34;22.70;96.80
18083;DHT22;9168;51.194;6.840;2022-10-19T12:38:10;22.50;97.80
18083;DHT22;9168;51.194;6.840;2022-10-19T12:40:44;22.30;97.60
18083;DHT22;9168;51.194;6.840;2022-10-19T12:43:18;22.10;96.80
18083;DHT22;9168;51.194;6.840;2022-10-19T12:45:50;21.90;96.50
18083;DHT22;9168;51.194;6.840;2022-10-19T12:48:21;21.80;97.60
18083;DHT22;9168;51.194;6.840;2022-10-19T12:51:15;21.80;99.00
18083;DHT22;9168;51.194;6.840;2022-10-19T12:53:46;21.70;95.50
18083;DHT22;9168;51.194;6.840;2022-10-19T12:56:20;21.60;96.50
18083;DHT22;9168;51.194;6.840;2022-10-19T12:58:55;21.50;96.80
18083;DHT22;9168;51.194;6.840;2022-10-19T13:01:26;21.40;96.60
18083;DHT22;9168;51.194;6.840;2022-10-19T13:04:06;21.20;94.70
18083;DHT22;9168;51.194;6.840;2022-10-19T13:06:36;21.10;95.60
18083;DHT22;9168;51.194;6.840;2022-10-19T13:09:07;21.10;95.20
18083;DHT22;9168;51.194;6.840;2022-10-19T13:11:34;21.20;94.60
18083;DHT22;9168;51.194;6.840;2022-10-19T13:14:05;21.30;94.90
18083;DHT22;9168;51.194;6.840;2022-10-19T13:16:58;21.40;95.90
18083;DHT22;9168;51.194;6.840;2022-10-19T13:19:26;21.40;96.40
18083;DHT22;9168;51.194;6.840;2022-10-19T13:25:23;21.50;97.70
18083;DHT22;9168;51.194;6.840;2022-10-19T13:27:53;21.10;94.60
18083;DHT22;9168;51.194;6.840;2022-10-19T13:30:57;20.90;96.30
18083;DHT22;9168;51.194;6.840;2022-10-19T13:33:47;20.70;98.30
18083;DHT22;9168;51.194;6.840;2022-10-19T13:36:15;20.60;98.10
18083;DHT22;9168;51.194;6.840;2022-10-19T13:38:44;20.40;96.40
18083;DHT22;9168;51.194;6.840;2022-10-19T13:41:16;20.30;95.20
18083;DHT22;9168;51.194;6.840;2022-10-19T13:43:54;20.30;95.30
18083;DHT22;9168;51.194;6.840;2022-10-19T13:46:38;20.20;93.90
18083;DHT22;9168;51.194;6.840;2022-10-19T13:52:36;20.10;98.50
18083;DHT22;9168;51.194;6.840;2022-10-19T13:58:42;19.80;94.60
18083;DHT22;9168;51.194;6.840;2022-10-19T14:01:26;19.80;95.70
18083;DHT22;9168;51.194;6.840;2022-10-19T14:04:06;19.70;96.50
18083;DHT22;9168;51.194;6.840;2022-10-19T14:06:42;19.60;98.70
18083;DHT22;9168;51.194;6.840;2022-10-19T14:12:15;19.40;98.90
18083;DHT22;9168;51.194;6.840;2022-10-19T14:14:44;19.30;98.90
18083;DHT22;9168;51.194;6.840;2022-10-19T14:17:16;19.20;99.90
18083;DHT22;9168;51.194;6.840;2022-10-19T14:19:45;19.00;99.90
18083;DHT22;9168;51.194;6.840;2022-10-19T14:22:34;19.00;99.90
18083;DHT22;9168;51.194;6.840;2022-10-19T14:25:04;19.00;99.80
18083;DHT22;9168;51.194;6.840;2022-10-19T14:27:32;18.90;99.90
18083;DHT22;9168;51.194;6.840;2022-10-19T14:30:02;18.90;99.90
18083;DHT22;9168;51.194;6.840;2022-10-19T14:32:32;18.90;99.90
18083;DHT22;9168;51.194;6.840;2022-10-19T14:35:03;18.80;99.90
18083;DHT22;9168;51.194;6.840;2022-10-19T14:37:30;18.70;99.90
18083;DHT22;9168;51.194;6.840;2022-10-19T14:40:04;18.60;99.90
18083;DHT22;9168;51.194;6.840;2022-10-19T14:42:38;18.50;99.90
18083;DHT22;9168;51.194;6.840;2022-10-19T14:45:13;18.40;99.90
18083;DHT22;9168;51.194;6.840;2022-10-19T14:47:50;18.30;99.90
18083;DHT22;9168;51.194;6.840;2022-10-19T14:50:18;18.20;99.90
18083;DHT22;9168;51.194;6.840;2022-10-19T14:52:48;18.20;99.90
18083;DHT22;9168;51.194;6.840;2022-10-19T14:55:19;18.20;99.90
18083;DHT22;9168;51.194;6.840;2022-10-19T14:57:48;18.30;99.90
18083;DHT22;9168;51.194;6.840;2022-10-19T15:00:19;18.40;99.90
18083;DHT22;9168;51.194;6.840;2022-10-19T15:02:48;18.60;99.90
18083;DHT22;9168;51.194;6.840;2022-10-19T15:05:19;18.80;99.90
18083;DHT22;9168;51.194;6.840;2022-10-19T15:07:47;18.90;99.90
18083;DHT22;9168;51.194;6.840;2022-10-19T15:10:19;18.80;99.90
18083;DHT22;9168;51.194;6.840;2022-10-19T15:12:47;18.70;99.90
18083;DHT22;9168;51.194;6.840;2022-10-19T15:15:20;18.70;99.90
18083;DHT22;9168;51.194;6.840;2022-10-19T15:17:51;18.60;99.90
18083;DHT22;9168;51.194;6.840;2022-10-19T15:20:26;18.50;99.90
18083;DHT22;9168;51.194;6.840;2022-10-19T15:22:54;18.40;99.90
18083;DHT22;9168;51.194;6.840;2022-10-19T15:25:27;18.30;99.90
18083;DHT22;9168;51.194;6.840;2022-10-19T15:27:55;18.20;99.90
18083;DHT22;9168;51.194;6.840;2022-10-19T15:30:26;18.10;99.90
18083;DHT22;9168;51.194;6.840;2022-10-19T15:33:07;17.90;99.90
18083;DHT22;9168;51.194;6.840;2022-10-19T15:35:36;17.70;99.90
18083;DHT22;9168;51.194;6.840;2022-10-19T15:38:06;17.50;99.90
18083;DHT22;9168;51.194;6.840;2022-10-19T15:40:37;17.40;99.90
18083;DHT22;9168;51.194;6.840;2022-10-19T15:43:36;17.20;99.90
18083;DHT22;9168;51.194;6.840;2022-10-19T15:46:07;17.00;99.90
18083;DHT22;9168;51.194;6.840;2022-10-19T15:48:46;16.80;99.90
18083;DHT22;9168;51.194;6.840;2022-10-19T15:51:32;16.70;99.90
18083;DHT22;9168;51.194;6.840;2022-10-19T15:54:00;16.40;99.90
18083;DHT22;9168;51.194;6.840;2022-10-19T15:56:29;16.30;99.90
18083;DHT22;9168;51.194;6.840;2022-10-19T15:58:58;16.10;99.90
18083;DHT22;9168;51.194;6.840;2022-10-19T16:01:28;16.00;99.90
18083;DHT22;9168;51.194;6.840;2022-10-19T16:03:56;15.90;99.90
18083;DHT22;9168;51.194;6.840;2022-10-19T16:06:26;15.80;99.90
18083;DHT22;9168;51.194;6.840;2022-10-19T16:08:53;15.70;99.90
18083;DHT22;9168;51.194;6.840;2022-10-19T16:11:21;15.50;99.90
18083;DHT22;9168;51.194;6.840;2022-10-19T16:13:49;15.40;99.90
18083;DHT22;9168;51.194;6.840;2022-10-19T16:16:19;15.20;99.90
18083;DHT22;9168;51.194;6.840;2022-10-19T16:18:48;15.10;99.90
18083;DHT22;9168;51.194;6.840;2022-10-19T16:21:17;15.00;99.90
18083;DHT22;9168;51.194;6.840;2022-10-19T16:23:44;14.80;99.90
18083;DHT22;9168;51.194;6.840;2022-10-19T16:26:13;14.70;99.90
18083;DHT22;9168;51.194;6.840;2022-10-19T16:28:40;14.60;99.90
18083;DHT22;9168;51.194;6.840;2022-10-19T16:31:07;14.60;99.90
18083;DHT22;9168;51.194;6.840;2022-10-19T16:33:34;14.50;99.90
18083;DHT22;9168;51.194;6.840;2022-10-19T16:36:05;14.40;99.90
18083;DHT22;9168;51.194;6.840;2022-10-19T16:38:32;14.20;99.90